Time;durP1;ratioP1;P1;durP2;ratioP2;P2;SDS_P1;SDS_P2;PMS_P1;PMS_P2;Temp;Humidity;BMP_temperature;BMP_pressure;BME280_temperature;BME280_humidity;BME280_pressure;Samples;Min_cycle;Max_cycle;Signal;HPM_P1;HPM_P2
2021/01/16 00:00:54;;;;;;;22.60;13.37;;;2.30;99.90;;;;;;4968671;28;20436;-86
2021/01/16 00:03:20;;;;;;;32.20;11.87;;;2.30;99.90;;;;;;4973072;28;20464;-88
2021/01/16 00:05:47;;;;;;;26.90;13.33;;;2.30;99.90;;;;;;4969969;28;20430;-86
2021/01/16 00:08:15;;;;;;;23.53;12.03;;;2.20;99.90;;;;;;4971244;28;20435;-86
2021/01/16 00:10:43;;;;;;;20.00;11.53;;;2.20;99.90;;;;;;4954797;28;20443;-88
2021/01/16 00:13:13;;;;;;;18.07;9.93;;;2.20;99.90;;;;;;4972552;28;20440;-86
2021/01/16 00:15:40;;;;;;;24.70;10.93;;;2.10;99.90;;;;;;4970357;28;20469;-87
2021/01/16 00:18:11;;;;;;;19.80;12.00;;;2.10;99.90;;;;;;4969325;28;21569;-87
2021/01/16 00:20:41;;;;;;;21.17;11.60;;;2.10;99.90;;;;;;4956239;28;20440;-86
2021/01/16 00:23:08;;;;;;;23.20;11.70;;;2.10;99.90;;;;;;4969911;28;20479;-89
2021/01/16 00:25:35;;;;;;;23.23;12.03;;;2.10;99.90;;;;;;4971927;28;20420;-88
2021/01/16 00:28:01;;;;;;;21.13;12.33;;;2.00;99.90;;;;;;4968899;28;20421;-87
2021/01/16 00:30:29;;;;;;;21.37;11.27;;;2.10;99.90;;;;;;4954870;28;20980;-85
2021/01/16 00:32:55;;;;;;;20.00;11.30;;;2.10;99.90;;;;;;4950617;28;20470;-86
2021/01/16 00:35:22;;;;;;;25.80;11.73;;;2.10;99.90;;;;;;4970429;28;20962;-85
2021/01/16 00:37:50;;;;;;;21.17;12.27;;;2.10;99.90;;;;;;4966251;28;20996;-84
2021/01/16 00:40:19;;;;;;;21.77;12.87;;;2.10;99.90;;;;;;4966416;28;20434;-86
2021/01/16 00:42:47;;;;;;;22.83;11.10;;;2.10;99.90;;;;;;4953040;28;20488;-87
2021/01/16 00:45:17;;;;;;;19.30;11.73;;;2.00;99.90;;;;;;4949899;28;20806;-87
2021/01/16 00:47:45;;;;;;;17.50;11.27;;;2.10;99.90;;;;;;4970408;28;20430;-87
2021/01/16 00:50:12;;;;;;;22.07;11.90;;;2.00;99.90;;;;;;4968812;28;20433;-86
2021/01/16 00:52:38;;;;;;;20.23;10.93;;;2.00;99.90;;;;;;4953201;28;20460;-88
2021/01/16 00:55:06;;;;;;;21.23;12.23;;;2.10;99.90;;;;;;4967804;28;20527;-86
2021/01/16 00:57:31;;;;;;;22.67;11.10;;;2.00;99.90;;;;;;4968722;28;20464;-84
2021/01/16 00:59:58;;;;;;;20.40;11.57;;;2.00;99.90;;;;;;4954262;28;20967;-86
2021/01/16 01:02:26;;;;;;;19.33;10.40;;;2.00;99.90;;;;;;4967865;28;20257;-83
2021/01/16 01:04:52;;;;;;;21.73;11.10;;;2.00;99.90;;;;;;4967198;28;20849;-87
2021/01/16 01:07:18;;;;;;;17.17;10.57;;;1.90;99.90;;;;;;4967385;28;20440;-88
2021/01/16 01:09:45;;;;;;;21.33;12.00;;;1.90;99.90;;;;;;4951564;28;20178;-88
2021/01/16 01:12:13;;;;;;;22.60;11.87;;;1.80;99.90;;;;;;4950850;28;20614;-86
2021/01/16 01:14:39;;;;;;;21.60;11.67;;;1.80;99.90;;;;;;4967580;28;20969;-85
2021/01/16 01:17:18;;;;;;;22.20;11.73;;;1.90;99.90;;;;;;4951978;28;20517;-87
2021/01/16 01:19:45;;;;;;;22.40;13.43;;;1.90;99.90;;;;;;4967889;28;20445;-86
2021/01/16 01:22:11;;;;;;;19.83;10.93;;;1.90;99.90;;;;;;4969931;28;20635;-86
2021/01/16 01:24:37;;;;;;;24.37;12.63;;;2.00;99.90;;;;;;4949130;28;20432;-88
2021/01/16 01:27:06;;;;;;;24.33;12.77;;;2.00;99.90;;;;;;4952121;28;20447;-85
2021/01/16 01:29:33;;;;;;;20.20;13.37;;;1.90;99.90;;;;;;4948912;28;20445;-86
2021/01/16 01:31:59;;;;;;;20.23;12.90;;;1.90;99.90;;;;;;4969369;28;20435;-84
2021/01/16 01:34:25;;;;;;;22.10;11.67;;;1.80;99.90;;;;;;4948702;28;20482;-86
2021/01/16 01:36:50;;;;;;;22.20;11.73;;;1.80;99.90;;;;;;4936156;28;20233;-84
2021/01/16 01:39:16;;;;;;;20.27;11.50;;;1.80;99.90;;;;;;4967551;28;20273;-85
2021/01/16 01:41:42;;;;;;;19.13;11.43;;;1.90;99.90;;;;;;4951465;28;20197;-88
2021/01/16 01:44:08;;;;;;;20.00;12.10;;;1.90;99.90;;;;;;4966664;28;20211;-85
2021/01/16 01:46:36;;;;;;;23.00;11.07;;;2.00;99.90;;;;;;4968023;28;20433;-84
2021/01/16 01:49:04;;;;;;;26.93;12.00;;;1.90;99.90;;;;;;4967580;28;20424;-86
2021/01/16 01:51:36;;;;;;;24.33;13.50;;;1.80;99.90;;;;;;4945947;28;20441;-85
2021/01/16 01:54:03;;;;;;;23.27;10.57;;;1.70;99.90;;;;;;4953411;28;20464;-87
2021/01/16 01:56:29;;;;;;;22.73;11.27;;;1.80;99.90;;;;;;4967068;28;20572;-85
2021/01/16 01:58:58;;;;;;;22.90;13.77;;;1.80;99.90;;;;;;4967743;28;20450;-87
2021/01/16 02:01:27;;;;;;;18.20;11.43;;;1.90;99.90;;;;;;4960319;28;20441;-87
2021/01/16 02:03:55;;;;;;;24.20;12.30;;;1.80;99.90;;;;;;4952602;28;20450;-85
2021/01/16 02:06:24;;;;;;;24.30;12.60;;;1.80;99.90;;;;;;4974512;28;20804;-86
2021/01/16 02:08:50;;;;;;;18.13;11.30;;;1.70;99.90;;;;;;4967366;28;20433;-85
2021/01/16 02:11:16;;;;;;;26.90;11.23;;;1.70;99.90;;;;;;4951478;28;20497;-87
2021/01/16 02:13:42;;;;;;;21.53;12.23;;;1.60;99.90;;;;;;4933897;28;20264;-85
2021/01/16 02:16:09;;;;;;;21.77;11.30;;;1.60;99.90;;;;;;4971534;28;20465;-87
2021/01/16 02:18:43;;;;;;;20.87;12.10;;;1.60;99.90;;;;;;4965451;28;21026;-85
2021/01/16 02:21:11;;;;;;;22.43;11.90;;;1.60;99.90;;;;;;4971633;28;20500;-87
2021/01/16 02:24:03;;;;;;;17.40;10.50;;;1.60;99.90;;;;;;4971006;28;20468;-86
2021/01/16 02:26:55;;;;;;;16.40;11.03;;;1.60;99.90;;;;;;4951237;28;20842;-86
2021/01/16 02:29:22;;;;;;;17.73;10.83;;;1.60;99.90;;;;;;4949330;28;20961;-84
2021/01/16 02:31:59;;;;;;;18.23;11.60;;;1.60;99.90;;;;;;4968628;28;20435;-86
2021/01/16 02:34:40;;;;;;;20.33;10.40;;;1.50;99.90;;;;;;4953348;28;20467;-84
2021/01/16 02:37:24;;;;;;;15.57;11.70;;;1.40;99.90;;;;;;4970041;28;20999;-84
2021/01/16 02:40:04;;;;;;;18.93;12.73;;;1.40;99.90;;;;;;4970365;28;20415;-86
2021/01/16 02:42:45;;;;;;;16.27;10.27;;;1.40;99.90;;;;;;4972766;28;20568;-86
2021/01/16 02:45:20;;;;;;;20.23;13.17;;;1.30;99.90;;;;;;4965119;28;20451;-85
2021/01/16 02:47:57;;;;;;;17.90;12.67;;;1.30;99.90;;;;;;4971328;28;20805;-87
2021/01/16 02:50:27;;;;;;;27.20;12.73;;;1.40;99.90;;;;;;4966708;28;20467;-85
2021/01/16 02:52:58;;;;;;;18.63;11.90;;;1.30;99.90;;;;;;4955828;28;20480;-85
2021/01/16 02:55:24;;;;;;;20.20;13.03;;;1.30;99.90;;;;;;4966677;28;20442;-87
2021/01/16 02:57:50;;;;;;;19.33;12.60;;;1.30;99.90;;;;;;4969942;28;20767;-86
2021/01/16 03:00:21;;;;;;;20.60;11.30;;;1.30;99.90;;;;;;4951104;28;20209;-87
2021/01/16 03:02:47;;;;;;;25.83;13.70;;;1.20;99.90;;;;;;4971198;28;20208;-84
2021/01/16 03:05:13;;;;;;;20.63;11.50;;;1.10;99.90;;;;;;4936706;28;20625;-85
2021/01/16 03:07:42;;;;;;;18.13;11.03;;;1.10;99.90;;;;;;4969819;28;20541;-86
2021/01/16 03:10:10;;;;;;;22.50;13.13;;;1.00;99.90;;;;;;4966822;28;20923;-85
2021/01/16 03:12:36;;;;;;;17.90;11.37;;;0.90;99.90;;;;;;4951509;28;20476;-86
2021/01/16 03:15:12;;;;;;;22.40;12.90;;;0.90;99.90;;;;;;4950925;28;20459;-86
2021/01/16 03:17:45;;;;;;;26.13;12.40;;;0.80;99.90;;;;;;4972056;28;20489;-86
2021/01/16 03:20:14;;;;;;;27.00;11.70;;;0.80;99.90;;;;;;4953637;28;20423;-84
2021/01/16 03:22:40;;;;;;;21.63;11.30;;;0.70;99.90;;;;;;4969190;28;20570;-85
2021/01/16 03:25:09;;;;;;;15.27;10.77;;;0.50;99.90;;;;;;4954205;28;20619;-86
2021/01/16 03:27:34;;;;;;;27.43;12.20;;;0.40;99.90;;;;;;4966905;28;20860;-84
2021/01/16 03:30:00;;;;;;;20.10;10.70;;;0.40;99.90;;;;;;4950513;28;20456;-86
2021/01/16 03:32:26;;;;;;;20.47;11.50;;;0.40;99.90;;;;;;4952491;28;20219;-83
2021/01/16 03:34:52;;;;;;;18.70;12.47;;;0.40;99.90;;;;;;4970079;28;20613;-87
2021/01/16 03:37:19;;;;;;;26.70;12.60;;;0.30;99.90;;;;;;4970511;28;20882;-87
2021/01/16 03:39:44;;;;;;;17.77;11.50;;;0.30;99.90;;;;;;4968615;28;20473;-87
2021/01/16 03:42:10;;;;;;;18.23;10.80;;;0.30;99.90;;;;;;4967434;28;20642;-85
2021/01/16 03:44:37;;;;;;;16.03;12.00;;;0.30;99.90;;;;;;4951703;28;20199;-87
2021/01/16 03:47:03;;;;;;;19.83;10.43;;;0.30;99.90;;;;;;4952773;28;20250;-86
2021/01/16 03:49:29;;;;;;;18.30;10.77;;;0.20;99.90;;;;;;4953186;28;20470;-86
2021/01/16 03:51:55;;;;;;;20.10;11.87;;;0.10;99.90;;;;;;4953978;28;20470;-87
2021/01/16 03:54:21;;;;;;;18.07;10.50;;;0.10;99.90;;;;;;4952010;28;20205;-87
2021/01/16 03:56:46;;;;;;;24.53;12.20;;;0.00;99.90;;;;;;4953499;28;21234;-87
2021/01/16 03:59:12;;;;;;;24.10;12.27;;;0.00;99.90;;;;;;4951657;28;20190;-88
2021/01/16 04:01:38;;;;;;;23.57;12.37;;;0.00;99.90;;;;;;4966689;28;20213;-87
2021/01/16 04:04:04;;;;;;;19.80;12.97;;;0.00;99.90;;;;;;4967288;28;20255;-88
2021/01/16 04:06:30;;;;;;;24.97;13.00;;;-0.10;99.90;;;;;;4952098;28;20482;-87
2021/01/16 04:08:55;;;;;;;17.87;11.10;;;-0.10;99.90;;;;;;4967257;28;20428;-87
2021/01/16 04:11:21;;;;;;;25.70;14.17;;;-0.10;99.90;;;;;;4951804;28;20974;-85
2021/01/16 04:13:47;;;;;;;21.93;14.37;;;-0.10;99.90;;;;;;4949318;28;20476;-87
2021/01/16 04:16:13;;;;;;;15.60;10.20;;;-0.10;99.90;;;;;;4951077;28;20604;-87
2021/01/16 04:18:39;;;;;;;18.70;12.97;;;-0.10;99.90;;;;;;4969498;28;20424;-87
2021/01/16 04:21:05;;;;;;;30.47;13.03;;;-0.20;99.90;;;;;;4950529;28;20433;-88
2021/01/16 04:23:31;;;;;;;29.27;13.07;;;-0.10;99.90;;;;;;4966433;28;20208;-87
2021/01/16 04:25:57;;;;;;;23.13;12.37;;;0.00;99.90;;;;;;4964334;28;20422;-86
2021/01/16 04:28:23;;;;;;;21.80;14.37;;;0.00;99.90;;;;;;4948681;28;20445;-86
2021/01/16 04:30:49;;;;;;;22.27;12.90;;;-0.10;99.90;;;;;;4951314;28;20436;-86
2021/01/16 04:33:16;;;;;;;21.30;11.03;;;-0.10;99.90;;;;;;4967954;28;20471;-86
2021/01/16 04:35:42;;;;;;;18.77;11.90;;;0.00;99.90;;;;;;4967091;28;20429;-84
2021/01/16 04:38:08;;;;;;;22.13;13.50;;;0.00;99.90;;;;;;4968690;28;20432;-85
2021/01/16 04:40:34;;;;;;;20.73;12.23;;;0.00;99.90;;;;;;4965267;28;20451;-84
2021/01/16 04:43:02;;;;;;;17.67;11.73;;;0.10;99.90;;;;;;4969612;28;20443;-86
2021/01/16 04:45:30;;;;;;;16.37;10.40;;;0.10;99.90;;;;;;4950270;28;20680;-85
2021/01/16 04:47:58;;;;;;;17.87;12.27;;;0.10;99.90;;;;;;4968992;28;20437;-84
2021/01/16 04:50:27;;;;;;;20.47;12.57;;;0.00;99.90;;;;;;4949690;28;20501;-87
2021/01/16 04:53:05;;;;;;;21.10;12.63;;;0.10;99.90;;;;;;4951482;28;20496;-86
2021/01/16 04:55:35;;;;;;;22.07;10.97;;;0.10;99.90;;;;;;4950413;28;20456;-87
2021/01/16 04:58:09;;;;;;;21.17;12.40;;;0.10;99.90;;;;;;4971324;28;20449;-87
2021/01/16 05:00:37;;;;;;;22.40;12.93;;;0.20;99.90;;;;;;4968814;28;20854;-85
2021/01/16 05:03:06;;;;;;;20.10;11.20;;;0.20;99.90;;;;;;4948928;28;20909;-86
2021/01/16 05:05:36;;;;;;;25.97;12.70;;;0.20;99.90;;;;;;4965717;28;20453;-86
2021/01/16 05:08:02;;;;;;;26.43;14.43;;;0.30;99.90;;;;;;4951124;28;20430;-86
2021/01/16 05:10:35;;;;;;;18.67;12.80;;;0.20;99.90;;;;;;4950628;28;20929;-85
2021/01/16 05:13:09;;;;;;;23.03;12.40;;;0.20;99.90;;;;;;4967230;28;20239;-85
2021/01/16 05:15:37;;;;;;;21.40;12.57;;;0.20;99.90;;;;;;4949201;28;20455;-85
2021/01/16 05:18:09;;;;;;;19.10;11.40;;;0.20;99.90;;;;;;4949319;28;20529;-85
2021/01/16 05:20:37;;;;;;;23.90;13.70;;;0.10;99.90;;;;;;4966086;28;20424;-85
2021/01/16 05:23:16;;;;;;;20.30;12.17;;;0.10;99.90;;;;;;4966214;28;20446;-85
2021/01/16 05:25:47;;;;;;;21.43;12.40;;;0.00;99.90;;;;;;4935021;28;20443;-85
2021/01/16 05:28:31;;;;;;;23.87;14.10;;;0.00;99.90;;;;;;4966657;28;20422;-88
2021/01/16 05:30:59;;;;;;;20.70;11.93;;;0.00;99.90;;;;;;4968036;28;20455;-87
2021/01/16 05:33:27;;;;;;;17.00;11.20;;;0.00;99.90;;;;;;4965588;28;20513;-86
2021/01/16 05:35:55;;;;;;;20.97;13.50;;;0.00;99.90;;;;;;4948912;28;20470;-86
2021/01/16 05:38:36;;;;;;;21.30;12.83;;;0.00;99.90;;;;;;4951526;28;21089;-88
2021/01/16 05:41:06;;;;;;;24.27;13.40;;;0.00;99.90;;;;;;4951516;28;20451;-87
2021/01/16 05:43:34;;;;;;;20.17;12.10;;;0.00;99.90;;;;;;4964144;28;20493;-87
2021/01/16 05:46:03;;;;;;;21.50;13.23;;;0.00;99.90;;;;;;4951542;28;20427;-85
2021/01/16 05:48:30;;;;;;;22.27;13.63;;;-0.10;99.90;;;;;;4947555;28;20427;-86
2021/01/16 05:50:58;;;;;;;26.57;14.00;;;-0.10;99.90;;;;;;4966178;28;20506;-87
2021/01/16 05:53:25;;;;;;;21.17;11.27;;;-0.20;99.90;;;;;;4950315;28;20450;-86
2021/01/16 05:55:53;;;;;;;21.13;11.83;;;-0.10;99.90;;;;;;4966710;28;20542;-86
2021/01/16 05:58:20;;;;;;;25.67;12.77;;;-0.10;99.90;;;;;;4950180;28;20437;-88
2021/01/16 06:00:50;;;;;;;29.30;12.17;;;-0.20;99.90;;;;;;4951565;28;20430;-87
2021/01/16 06:03:18;;;;;;;17.97;10.50;;;-0.20;99.90;;;;;;4966544;28;20485;-87
2021/01/16 06:05:52;;;;;;;19.13;11.40;;;-0.20;99.90;;;;;;4965712;28;20427;-85
2021/01/16 06:08:19;;;;;;;12.57;9.40;;;-0.20;99.90;;;;;;4967203;28;20582;-88
2021/01/16 06:10:52;;;;;;;21.80;13.30;;;-0.30;99.90;;;;;;4968216;28;20774;-86
2021/01/16 06:13:20;;;;;;;20.77;10.70;;;-0.30;99.90;;;;;;4950047;28;21051;-86
2021/01/16 06:15:49;;;;;;;18.30;10.47;;;-0.40;99.90;;;;;;4948274;28;20434;-88
2021/01/16 06:18:21;;;;;;;23.70;11.80;;;-0.40;99.90;;;;;;4949314;28;20493;-88
2021/01/16 06:20:49;;;;;;;21.03;12.07;;;-0.40;99.90;;;;;;4966548;28;21186;-86
2021/01/16 06:23:18;;;;;;;26.07;10.80;;;-0.40;99.90;;;;;;4967145;28;20465;-88
2021/01/16 06:25:48;;;;;;;21.83;11.63;;;-0.40;99.90;;;;;;4952827;28;20432;-86
2021/01/16 06:28:18;;;;;;;18.90;12.07;;;-0.40;99.90;;;;;;4950900;28;20492;-87
2021/01/16 06:30:51;;;;;;;18.50;11.17;;;-0.40;99.90;;;;;;4930462;28;20491;-87
2021/01/16 06:33:28;;;;;;;18.63;10.57;;;-0.40;99.90;;;;;;4965600;28;20479;-85
2021/01/16 06:36:02;;;;;;;18.30;10.80;;;-0.40;99.90;;;;;;4963627;28;20461;-86
2021/01/16 06:38:30;;;;;;;17.20;10.53;;;-0.40;99.90;;;;;;4966823;28;20419;-85
2021/01/16 06:41:09;;;;;;;18.50;10.57;;;-0.40;99.90;;;;;;4948663;28;20940;-87
2021/01/16 06:43:38;;;;;;;21.13;11.50;;;-0.40;99.90;;;;;;4950550;28;20442;-85
2021/01/16 06:46:08;;;;;;;21.37;12.50;;;-0.40;99.90;;;;;;4963418;28;20757;-89
2021/01/16 06:48:38;;;;;;;20.87;11.67;;;-0.40;99.90;;;;;;4968445;28;20964;-85
2021/01/16 06:51:07;;;;;;;16.90;11.47;;;-0.40;99.90;;;;;;4965133;28;20752;-84
2021/01/16 06:53:33;;;;;;;20.23;12.73;;;-0.40;99.90;;;;;;4965279;28;20877;-87
2021/01/16 06:56:09;;;;;;;17.87;9.50;;;-0.40;99.90;;;;;;4966028;28;20562;-87
2021/01/16 06:58:40;;;;;;;20.20;11.43;;;-0.40;99.90;;;;;;4948121;28;20202;-85
2021/01/16 07:01:08;;;;;;;24.47;11.80;;;-0.40;99.90;;;;;;4966874;28;20436;-86
2021/01/16 07:03:47;;;;;;;17.03;11.20;;;-0.40;99.90;;;;;;4937227;28;20470;-89
2021/01/16 07:06:13;;;;;;;22.90;12.90;;;-0.40;99.90;;;;;;4969839;28;20440;-84
2021/01/16 07:08:41;;;;;;;18.17;13.67;;;-0.40;99.90;;;;;;4950539;28;20443;-87
2021/01/16 07:11:09;;;;;;;20.37;11.73;;;-0.40;99.90;;;;;;4967552;28;20458;-88
2021/01/16 07:13:35;;;;;;;16.10;10.70;;;-0.40;99.90;;;;;;4969200;28;20452;-84
2021/01/16 07:16:05;;;;;;;22.17;12.80;;;-0.40;99.90;;;;;;4968623;28;20528;-86
2021/01/16 07:18:32;;;;;;;19.17;10.70;;;-0.30;99.90;;;;;;4954209;28;20428;-86
2021/01/16 07:20:59;;;;;;;16.20;10.13;;;-0.40;99.90;;;;;;4956091;28;20425;-87
2021/01/16 07:23:25;;;;;;;19.30;11.43;;;-0.40;99.90;;;;;;4974018;28;20453;-87
2021/01/16 07:25:53;;;;;;;22.70;13.60;;;-0.40;99.90;;;;;;4950331;28;20501;-88
2021/01/16 07:28:26;;;;;;;20.83;12.20;;;-0.30;99.90;;;;;;4968552;28;20924;-85
2021/01/16 07:30:52;;;;;;;22.30;13.00;;;-0.30;99.90;;;;;;4962108;28;20825;-86
2021/01/16 07:33:19;;;;;;;23.27;13.17;;;-0.30;99.90;;;;;;4969848;28;20534;-89
2021/01/16 07:35:49;;;;;;;19.50;11.83;;;-0.30;99.90;;;;;;4951590;28;20508;-83
2021/01/16 07:38:17;;;;;;;22.30;13.30;;;-0.30;99.90;;;;;;4968656;28;20467;-84
2021/01/16 07:40:45;;;;;;;17.53;10.87;;;-0.30;99.90;;;;;;4949706;28;20431;-87
2021/01/16 07:43:37;;;;;;;20.70;11.37;;;-0.30;99.90;;;;;;4965536;28;20548;-84
2021/01/16 07:46:09;;;;;;;17.57;11.13;;;-0.30;99.90;;;;;;4966886;28;20526;-88
2021/01/16 07:48:51;;;;;;;20.67;12.43;;;-0.20;99.90;;;;;;4953730;28;20863;-87
2021/01/16 07:51:18;;;;;;;19.97;12.83;;;-0.30;99.90;;;;;;4971130;28;20527;-88
2021/01/16 07:53:44;;;;;;;17.60;10.87;;;-0.30;99.90;;;;;;4976404;28;20466;-86
2021/01/16 07:56:21;;;;;;;23.50;12.90;;;-0.30;99.90;;;;;;4971958;28;20527;-85
2021/01/16 07:59:17;;;;;;;24.57;13.07;;;-0.20;99.90;;;;;;4978574;28;20416;-86
2021/01/16 08:01:46;;;;;;;17.73;11.30;;;-0.20;99.90;;;;;;4976381;28;20511;-88
2021/01/16 08:04:37;;;;;;;20.97;13.13;;;-0.10;99.90;;;;;;4965809;28;20463;-86
2021/01/16 08:07:07;;;;;;;15.40;10.33;;;-0.10;99.90;;;;;;4971797;28;20447;-87
2021/01/16 08:09:55;;;;;;;26.30;14.23;;;-0.10;99.90;;;;;;4970424;28;20518;-85
2021/01/16 08:12:27;;;;;;;21.10;11.53;;;-0.20;99.90;;;;;;4968799;28;20992;-85
2021/01/16 08:14:53;;;;;;;16.90;11.03;;;-0.20;99.90;;;;;;4965576;28;20517;-87
2021/01/16 08:17:27;;;;;;;20.00;12.93;;;-0.10;99.90;;;;;;4965007;28;20470;-88
2021/01/16 08:20:14;;;;;;;23.30;13.77;;;-0.10;99.90;;;;;;4966752;28;20564;-88
2021/01/16 08:22:41;;;;;;;22.50;12.47;;;-0.10;99.90;;;;;;4948242;28;20452;-87
2021/01/16 08:25:09;;;;;;;25.73;13.80;;;-0.10;99.90;;;;;;4968137;28;20916;-87
2021/01/16 08:27:37;;;;;;;22.77;13.80;;;0.00;99.90;;;;;;4964199;28;20478;-86
2021/01/16 08:30:15;;;;;;;26.70;15.80;;;0.00;99.90;;;;;;4958018;28;20444;-87
2021/01/16 08:33:02;;;;;;;24.80;14.00;;;0.00;99.90;;;;;;4932593;28;20486;-88
2021/01/16 08:35:37;;;;;;;23.53;13.20;;;0.00;99.90;;;;;;4968782;28;20454;-86
2021/01/16 08:38:17;;;;;;;21.97;14.50;;;0.00;99.90;;;;;;4964357;28;20502;-86
2021/01/16 08:41:03;;;;;;;19.80;14.27;;;0.10;99.90;;;;;;4967833;28;20456;-86
2021/01/16 08:43:43;;;;;;;23.00;13.90;;;0.10;99.90;;;;;;4963086;28;20462;-84
2021/01/16 08:46:13;;;;;;;27.50;14.60;;;0.00;99.90;;;;;;4965972;28;20438;-87
2021/01/16 08:48:40;;;;;;;20.43;12.87;;;0.10;99.90;;;;;;4951455;28;20448;-89
2021/01/16 08:51:25;;;;;;;22.10;13.43;;;0.10;99.90;;;;;;4968078;28;20593;-87
2021/01/16 08:54:04;;;;;;;23.43;11.30;;;0.20;99.90;;;;;;4970036;28;20456;-87
2021/01/16 08:56:30;;;;;;;29.00;15.10;;;0.30;99.90;;;;;;4967684;28;20548;-84
2021/01/16 08:58:57;;;;;;;20.90;13.33;;;0.20;99.90;;;;;;4967666;28;20947;-85
2021/01/16 09:01:24;;;;;;;24.50;12.83;;;0.30;99.90;;;;;;4935924;28;20818;-85
2021/01/16 09:04:13;;;;;;;30.70;16.43;;;0.30;99.90;;;;;;4938777;28;20455;-85
2021/01/16 09:06:39;;;;;;;27.50;14.00;;;0.30;99.90;;;;;;4966541;28;20829;-89
2021/01/16 09:09:05;;;;;;;26.27;12.77;;;0.30;99.90;;;;;;4947515;28;20514;-88
2021/01/16 09:11:30;;;;;;;27.43;13.27;;;0.40;99.90;;;;;;4942877;28;20262;-85
2021/01/16 09:13:56;;;;;;;28.87;15.20;;;0.50;99.90;;;;;;4935176;28;20224;-85
2021/01/16 09:16:30;;;;;;;28.40;15.30;;;0.60;99.90;;;;;;4960287;28;20215;-86
2021/01/16 09:18:57;;;;;;;22.47;15.17;;;0.80;99.90;;;;;;4970566;28;20442;-86
2021/01/16 09:21:24;;;;;;;25.63;14.93;;;0.90;99.90;;;;;;4950877;28;20536;-85
2021/01/16 09:23:50;;;;;;;25.27;14.77;;;0.80;99.90;;;;;;4949752;28;21724;-89
2021/01/16 09:26:18;;;;;;;27.63;14.80;;;0.70;99.90;;;;;;4953982;28;20469;-86
2021/01/16 09:28:49;;;;;;;23.30;14.47;;;0.70;99.90;;;;;;4949725;28;20445;-86
2021/01/16 09:31:31;;;;;;;26.43;13.93;;;0.50;99.90;;;;;;4971188;28;20841;-88
2021/01/16 09:34:07;;;;;;;25.23;14.00;;;0.50;99.90;;;;;;4966841;28;20471;-87
2021/01/16 09:36:38;;;;;;;25.63;14.57;;;0.40;99.90;;;;;;4949226;28;20467;-84
2021/01/16 09:39:06;;;;;;;24.17;12.40;;;0.40;99.90;;;;;;4950030;28;20835;-84
2021/01/16 09:41:35;;;;;;;23.20;14.07;;;0.40;99.90;;;;;;4948507;28;20451;-84
2021/01/16 09:44:02;;;;;;;26.57;15.17;;;0.40;99.90;;;;;;4970479;28;20448;-87
2021/01/16 09:46:37;;;;;;;26.40;15.57;;;0.50;99.90;;;;;;4935252;28;20480;-86
2021/01/16 09:49:04;;;;;;;25.03;14.07;;;0.50;99.90;;;;;;4940080;28;20519;-86
2021/01/16 09:51:34;;;;;;;25.23;14.57;;;0.50;99.90;;;;;;4973898;28;20904;-85
2021/01/16 09:54:14;;;;;;;25.93;15.53;;;0.50;99.90;;;;;;4939837;28;20456;-85
2021/01/16 09:56:50;;;;;;;22.40;11.93;;;0.50;99.90;;;;;;4969400;28;20517;-86
2021/01/16 09:59:23;;;;;;;30.13;16.60;;;0.60;99.90;;;;;;4972680;28;20438;-87
2021/01/16 10:02:08;;;;;;;25.80;16.90;;;0.80;99.90;;;;;;4952079;28;20432;-87
2021/01/16 10:04:44;;;;;;;19.50;11.20;;;0.80;99.90;;;;;;4972980;28;20536;-85
2021/01/16 10:07:15;;;;;;;28.50;15.00;;;0.90;99.90;;;;;;4957638;28;20458;-85
2021/01/16 10:09:49;;;;;;;24.07;15.10;;;1.00;99.90;;;;;;4974575;28;20428;-85
2021/01/16 10:12:33;;;;;;;31.67;16.07;;;1.10;99.90;;;;;;4969369;28;20796;-87
2021/01/16 10:15:04;;;;;;;23.80;14.13;;;1.20;99.90;;;;;;4979798;28;20420;-85
2021/01/16 10:17:34;;;;;;;35.33;15.70;;;1.30;99.90;;;;;;4942011;28;20577;-87
2021/01/16 10:20:20;;;;;;;20.57;12.50;;;1.30;99.90;;;;;;4959359;28;20446;-86
2021/01/16 10:22:53;;;;;;;24.60;14.40;;;1.40;99.90;;;;;;4956516;28;20462;-86
2021/01/16 10:25:20;;;;;;;22.00;12.60;;;1.40;99.90;;;;;;4964654;28;20492;-85
2021/01/16 10:27:52;;;;;;;20.60;12.10;;;1.40;99.90;;;;;;4950550;28;20429;-85
2021/01/16 10:30:20;;;;;;;23.37;13.40;;;1.40;99.90;;;;;;4970796;28;20433;-84
2021/01/16 10:32:50;;;;;;;23.10;12.70;;;1.40;99.90;;;;;;4939105;28;20990;-88
2021/01/16 10:35:29;;;;;;;20.10;12.83;;;1.30;99.90;;;;;;4948186;28;20483;-87
2021/01/16 10:38:49;;;;;;;22.97;13.93;;;1.40;99.90;;;;;;4953400;28;20856;-86
2021/01/16 10:52:12;;;;;;;20.83;10.90;;;1.60;99.90;;;;;;4884759;29;20581;-86
2021/01/16 10:55:13;;;;;;;20.57;12.77;;;1.60;99.90;;;;;;4879563;29;20446;-88
2021/01/16 10:57:56;;;;;;;18.03;10.67;;;1.60;99.90;;;;;;4886793;29;20471;-87
2021/01/16 11:01:22;;;;;;;18.07;11.93;;;1.70;99.90;;;;;;4936087;28;20557;-87
2021/01/16 11:10:12;;;;;;;18.20;13.57;;;1.40;99.90;;;;;;5008359;28;20928;-87
2021/01/16 11:15:30;;;;;;;23.90;13.17;;;1.50;99.90;;;;;;5069030;23;20511;-87
2021/01/16 11:18:05;;;;;;;26.97;13.30;;;1.70;99.90;;;;;;4972350;28;20483;-85
2021/01/16 11:20:38;;;;;;;24.30;14.67;;;1.80;99.90;;;;;;4973379;28;20504;-88
2021/01/16 11:23:30;;;;;;;13.70;9.27;;;1.90;99.90;;;;;;4965313;28;20452;-88
2021/01/16 11:26:15;;;;;;;28.00;14.83;;;1.80;99.90;;;;;;4957930;28;20447;-89
2021/01/16 11:29:47;;;;;;;31.77;14.87;;;1.90;99.90;;;;;;4964868;28;20497;-87
2021/01/16 11:32:22;;;;;;;25.73;14.00;;;2.20;99.90;;;;;;4952898;28;20432;-88
2021/01/16 11:35:23;;;;;;;25.00;15.20;;;2.30;99.90;;;;;;4953373;28;20446;-87
2021/01/16 11:37:59;;;;;;;26.00;14.27;;;2.40;99.90;;;;;;4950087;28;20479;-88
2021/01/16 11:44:39;;;;;;;25.47;14.20;;;2.50;99.90;;;;;;4963214;28;20484;-90
2021/01/16 11:47:03;;;;;;;20.33;13.40;;;2.50;99.90;;;;;;4967787;28;20464;-89
2021/01/16 11:49:32;;;;;;;28.17;16.10;;;2.40;99.90;;;;;;4956710;28;20853;-85
2021/01/16 11:52:05;;;;;;;25.87;14.47;;;2.30;99.90;;;;;;4967272;28;20432;-84
2021/01/16 11:54:42;;;;;;;20.33;13.47;;;2.30;99.90;;;;;;4949668;28;20539;-85
2021/01/16 11:57:10;;;;;;;24.40;12.10;;;2.30;99.90;;;;;;4967225;28;20771;-86
2021/01/16 11:59:42;;;;;;;22.43;13.87;;;2.30;99.90;;;;;;4967263;28;20446;-82
2021/01/16 12:02:15;;;;;;;24.97;13.30;;;2.40;99.90;;;;;;4953628;28;20441;-83
2021/01/16 12:04:51;;;;;;;28.60;14.63;;;2.50;99.90;;;;;;4964665;28;20448;-83
2021/01/16 12:07:24;;;;;;;26.63;15.97;;;2.70;99.90;;;;;;4938696;28;20441;-85
2021/01/16 12:09:54;;;;;;;26.40;15.50;;;2.60;99.90;;;;;;4965891;28;20454;-85
2021/01/16 12:12:20;;;;;;;26.93;14.80;;;2.60;99.90;;;;;;4925371;28;20446;-78
2021/01/16 12:14:46;;;;;;;30.53;15.13;;;2.70;99.90;;;;;;4961394;28;20511;-75
2021/01/16 12:17:13;;;;;;;23.17;14.93;;;2.90;99.90;;;;;;4949439;28;20487;-75
2021/01/16 12:19:40;;;;;;;25.03;14.17;;;2.90;99.90;;;;;;4958179;28;20668;-76
2021/01/16 12:22:11;;;;;;;29.13;15.60;;;3.00;99.90;;;;;;4964368;28;20468;-77
2021/01/16 12:24:53;;;;;;;24.50;14.20;;;3.10;99.90;;;;;;4965514;28;20477;-82
2021/01/16 12:27:26;;;;;;;23.47;14.10;;;3.20;99.90;;;;;;4947028;28;21034;-82
2021/01/16 12:30:02;;;;;;;20.40;13.70;;;2.90;99.90;;;;;;4949713;28;21308;-85
2021/01/16 12:32:39;;;;;;;27.30;13.20;;;2.70;99.90;;;;;;4935635;28;20432;-84
2021/01/16 12:35:11;;;;;;;20.70;12.30;;;2.40;99.90;;;;;;4954746;28;20512;-86
2021/01/16 12:37:41;;;;;;;21.17;11.97;;;2.40;99.90;;;;;;4951746;28;20526;-85
2021/01/16 12:40:46;;;;;;;27.47;11.93;;;2.30;99.90;;;;;;4952054;28;20484;-85
2021/01/16 12:43:19;;;;;;;21.90;10.70;;;2.40;99.90;;;;;;4947101;28;20543;-87
2021/01/16 12:46:34;;;;;;;24.00;12.53;;;2.40;99.90;;;;;;4950392;28;20436;-87
2021/01/16 12:49:03;;;;;;;23.47;14.07;;;2.40;99.90;;;;;;4953981;28;20461;-84
2021/01/16 12:51:30;;;;;;;20.67;10.90;;;2.60;99.90;;;;;;4956142;28;20461;-86
2021/01/16 12:53:58;;;;;;;19.77;12.27;;;2.60;99.90;;;;;;4975212;28;20464;-87
2021/01/16 12:56:39;;;;;;;22.53;13.10;;;2.50;99.90;;;;;;4955935;28;20634;-85
2021/01/16 12:59:06;;;;;;;19.27;12.13;;;2.50;99.90;;;;;;4954943;28;20612;-85
2021/01/16 13:01:51;;;;;;;;;;;;;;;;;;;;;
2021/01/16 13:04:24;;;;;;;17.07;8.47;;;2.60;99.90;;;;;;4976905;28;21030;-86
2021/01/16 13:06:52;;;;;;;26.40;12.67;;;2.60;99.90;;;;;;4957079;28;20460;-84
2021/01/16 13:09:36;;;;;;;19.73;11.40;;;2.30;99.90;;;;;;4956652;28;20838;-84
2021/01/16 13:12:06;;;;;;;19.37;10.33;;;2.10;99.90;;;;;;4939939;28;20502;-84
2021/01/16 13:14:53;;;;;;;20.93;11.63;;;1.90;99.90;;;;;;4954742;28;20525;-84
2021/01/16 13:17:24;;;;;;;18.50;10.97;;;1.80;99.90;;;;;;4959245;28;20464;-86
2021/01/16 13:19:54;;;;;;;15.00;9.17;;;1.70;99.90;;;;;;4950741;28;20434;-85
2021/01/16 13:22:47;;;;;;;17.17;9.20;;;1.70;99.90;;;;;;4942175;28;20491;-84